Time;durP1;ratioP1;P1;durP2;ratioP2;P2;SDS_P1;SDS_P2;PMS_P1;PMS_P2;Temp;Humidity;BMP_temperature;BMP_pressure;BME280_temperature;BME280_humidity;BME280_pressure;Samples;Min_cycle;Max_cycle;Signal;HPM_P1;HPM_P2
2023/08/15 00:00:54;;;;;;;6.83;5.33;;;;;;;21.39;96.53;100604.97;5091927;28;20224;-74
2023/08/15 00:03:20;;;;;;;9.93;5.22;;;;;;;21.38;97.73;100604.13;5090906;28;20206;-74
2023/08/15 00:05:47;;;;;;;8.57;5.50;;;;;;;21.36;98.92;100600.72;5079030;28;20213;-74
2023/08/15 00:08:13;;;;;;;8.82;5.32;;;;;;;21.34;98.87;100594.63;5088272;28;20227;-74
2023/08/15 00:10:40;;;;;;;6.53;5.10;;;;;;;21.30;98.52;100595.16;5096563;28;20504;-74
2023/08/15 00:13:07;;;;;;;8.45;5.28;;;;;;;21.24;99.23;100584.97;5081170;28;20287;-73
2023/08/15 00:15:35;;;;;;;5.82;4.80;;;;;;;21.20;98.87;100594.44;5087686;28;20223;-73
2023/08/15 00:18:02;;;;;;;8.27;5.60;;;;;;;21.17;99.25;100595.59;5090465;28;20221;-74
2023/08/15 00:20:28;;;;;;;7.22;5.45;;;;;;;21.14;99.34;100604.06;5083903;28;20227;-73
2023/08/15 00:22:55;;;;;;;7.70;5.10;;;;;;;21.13;99.46;100603.22;5093306;28;20202;-73
2023/08/15 00:25:21;;;;;;;9.77;5.30;;;;;;;21.14;99.18;100599.47;5089775;28;20587;-73
2023/08/15 00:27:48;;;;;;;7.27;5.03;;;;;;;21.12;98.47;100597.97;5102501;28;20202;-76
2023/08/15 00:30:14;;;;;;;6.87;5.03;;;;;;;21.05;97.79;100592.38;5093267;28;20235;-75
2023/08/15 00:32:42;;;;;;;8.33;4.73;;;;;;;21.00;98.08;100588.47;5088261;28;20205;-75
2023/08/15 00:35:11;;;;;;;6.93;4.47;;;;;;;21.06;99.42;100591.34;5083190;28;20667;-75
2023/08/15 00:37:37;;;;;;;5.07;4.13;;;;;;;21.11;100.00;100588.16;5092835;28;20199;-75
2023/08/15 00:40:06;;;;;;;9.27;4.47;;;;;;;21.18;100.00;100588.31;5093568;28;20244;-74
2023/08/15 00:42:32;;;;;;;4.37;3.97;;;;;;;21.24;99.91;100583.13;5096945;28;20208;-74
2023/08/15 00:44:58;;;;;;;6.40;4.35;;;;;;;21.29;99.56;100583.47;5092971;28;20773;-74
2023/08/15 00:47:26;;;;;;;6.88;4.35;;;;;;;21.34;99.01;100591.06;5086683;28;20215;-74
2023/08/15 00:49:54;;;;;;;4.97;3.90;;;;;;;21.37;98.37;100588.88;5092224;28;20228;-73
2023/08/15 00:52:21;;;;;;;8.82;4.15;;;;;;;21.43;97.76;100588.22;5097850;28;20207;-73
2023/08/15 00:54:49;;;;;;;4.72;3.80;;;;;;;21.50;97.26;100584.84;5095111;28;20210;-74
2023/08/15 00:57:18;;;;;;;6.38;3.97;;;;;;;21.52;96.86;100580.94;5082027;28;20227;-73
2023/08/15 00:59:45;;;;;;;5.80;3.47;;;;;;;21.57;96.21;100586.69;5095726;28;20222;-74
2023/08/15 01:02:12;;;;;;;6.22;4.07;;;;;;;21.58;95.77;100582.97;5092045;28;20205;-75
2023/08/15 01:04:40;;;;;;;5.70;4.20;;;;;;;21.59;95.60;100579.25;5092871;28;20494;-74
2023/08/15 01:07:08;;;;;;;4.45;3.75;;;;;;;21.61;95.48;100579.06;5099645;28;20204;-74
2023/08/15 01:09:35;;;;;;;4.65;3.80;;;;;;;21.61;95.44;100576.38;5109179;28;20235;-74
2023/08/15 01:12:09;;;;;;;7.95;3.92;;;;;;;21.66;94.91;100571.28;5095746;28;20208;-74
2023/08/15 01:14:41;;;;;;;4.80;3.53;;;;;;;21.64;94.93;100565.19;5082172;28;20395;-74
2023/08/15 01:17:11;;;;;;;6.25;4.38;;;;;;;21.64;94.94;100571.47;5088891;28;20617;-74
2023/08/15 01:19:42;;;;;;;3.92;3.53;;;;;;;21.62;94.83;100570.78;5089735;28;20228;-74
2023/08/15 01:22:16;;;;;;;4.95;3.50;;;;;;;21.63;94.69;100568.91;5084507;28;20615;-74
2023/08/15 01:24:44;;;;;;;5.22;4.22;;;;;;;21.63;94.56;100568.91;5086301;28;20207;-73
2023/08/15 01:27:11;;;;;;;5.85;3.78;;;;;;;21.63;94.47;100568.91;5086266;28;20635;-73
2023/08/15 01:29:37;;;;;;;7.10;3.80;;;;;;;21.65;94.28;100567.72;5085309;28;20505;-73
2023/08/15 01:32:10;;;;;;;6.57;4.10;;;;;;;21.62;94.16;100562.66;5090276;28;20214;-72
2023/08/15 01:34:43;;;;;;;7.25;4.68;;;;;;;21.65;94.18;100565.03;5087300;28;20206;-72
2023/08/15 01:37:17;;;;;;;4.32;3.40;;;;;;;21.63;94.03;100564.34;5090059;28;20234;-73
2023/08/15 01:39:50;;;;;;;7.40;3.67;;;;;;;21.64;93.88;100563.31;5088380;28;20230;-73
2023/08/15 01:42:20;;;;;;;4.28;3.70;;;;;;;21.64;94.03;100565.19;5080326;28;20207;-73
2023/08/15 01:44:47;;;;;;;4.88;4.22;;;;;;;21.63;93.92;100567.06;5087515;28;20203;-72
2023/08/15 01:47:13;;;;;;;6.30;3.88;;;;;;;21.65;93.96;100559.59;5087090;28;20210;-73
2023/08/15 01:49:40;;;;;;;5.15;3.72;;;;;;;21.63;93.94;100560.78;5088938;28;20224;-73
2023/08/15 01:52:06;;;;;;;5.07;3.70;;;;;;;21.62;93.94;100570.78;5088718;28;20768;-73
2023/08/15 01:54:33;;;;;;;6.80;3.38;;;;;;;21.62;94.03;100562.66;5087054;28;20207;-73
2023/08/15 01:57:01;;;;;;;4.00;3.60;;;;;;;21.62;93.81;100564.50;5084368;28;20230;-73
2023/08/15 01:59:27;;;;;;;5.38;4.07;;;;;;;21.59;94.02;100568.41;5083653;28;20219;-73
2023/08/15 02:01:53;;;;;;;6.78;3.40;;;;;;;21.57;93.97;100565.00;5088056;28;20204;-73
2023/08/15 02:04:20;;;;;;;6.60;3.75;;;;;;;21.59;93.66;100565.69;5089604;28;20210;-73
2023/08/15 02:06:46;;;;;;;3.95;3.55;;;;;;;21.59;93.36;100557.56;5085456;28;20219;-73
2023/08/15 02:09:13;;;;;;;6.55;3.72;;;;;;;21.60;93.03;100563.84;5090063;28;20212;-73
2023/08/15 02:11:39;;;;;;;4.53;3.35;;;;;;;21.63;92.86;100558.91;5087091;28;20211;-73
2023/08/15 02:14:07;;;;;;;5.03;3.60;;;;;;;21.67;92.48;100559.44;5085344;28;20203;-73
2023/08/15 02:16:33;;;;;;;4.40;3.60;;;;;;;21.66;92.37;100566.72;5088063;28;20513;-73
2023/08/15 02:19:00;;;;;;;5.32;3.83;;;;;;;21.67;92.10;100562.16;5085903;28;20210;-73
2023/08/15 02:21:26;;;;;;;5.40;3.60;;;;;;;21.69;92.24;100560.94;5078242;28;20204;-73
2023/08/15 02:23:53;;;;;;;7.97;3.67;;;;;;;21.69;92.09;100552.78;5086874;28;20199;-73
2023/08/15 02:26:19;;;;;;;6.20;3.80;;;;;;;21.69;92.17;100557.38;5088630;28;20208;-72
2023/08/15 02:28:46;;;;;;;5.13;3.45;;;;;;;21.69;91.80;100546.53;5084268;28;20211;-72
2023/08/15 02:31:13;;;;;;;3.58;3.25;;;;;;;21.67;91.84;100546.72;5081699;28;20236;-73
2023/08/15 02:33:40;;;;;;;4.05;3.15;;;;;;;21.67;91.66;100554.84;5082045;28;20207;-73
2023/08/15 02:36:07;;;;;;;4.07;3.53;;;;;;;21.67;91.79;100552.16;5085409;28;20233;-73
2023/08/15 02:38:33;;;;;;;4.53;3.80;;;;;;;21.69;91.20;100543.81;5090211;28;20210;-74
2023/08/15 02:41:00;;;;;;;3.80;3.50;;;;;;;21.69;91.09;100541.94;5084981;28;20231;-73
2023/08/15 02:43:26;;;;;;;4.70;3.35;;;;;;;21.70;90.90;100543.66;5085280;28;20668;-73
2023/08/15 02:45:53;;;;;;;4.55;3.10;;;;;;;21.69;90.79;100541.94;5084172;28;20196;-73
2023/08/15 02:48:21;;;;;;;5.80;3.80;;;;;;;21.69;90.48;100533.81;5089168;28;20211;-75
2023/08/15 02:50:47;;;;;;;3.95;3.30;;;;;;;21.68;90.67;100534.84;5082975;28;20224;-73
2023/08/15 02:53:13;;;;;;;4.05;3.47;;;;;;;21.67;90.66;100540.47;5087767;28;20211;-74
2023/08/15 02:55:40;;;;;;;4.53;3.35;;;;;;;21.69;90.65;100543.81;5086846;28;20211;-73
2023/08/15 02:58:06;;;;;;;4.38;3.25;;;;;;;21.67;90.64;100549.44;5083340;28;20208;-73
2023/08/15 03:00:35;;;;;;;5.30;3.25;;;;;;;21.68;90.81;100548.38;5085900;28;20247;-73
2023/08/15 03:03:01;;;;;;;4.28;3.08;;;;;;;21.70;90.48;100545.50;5085518;28;20207;-73
2023/08/15 03:05:29;;;;;;;3.63;3.20;;;;;;;21.72;90.37;100559.75;5083851;28;20211;-72
2023/08/15 03:07:55;;;;;;;3.60;3.22;;;;;;;21.73;90.22;100559.56;5082093;28;20211;-73
2023/08/15 03:10:22;;;;;;;4.68;3.47;;;;;;;21.74;90.00;100555.84;5081319;28;20223;-73
2023/08/15 03:12:48;;;;;;;3.88;3.45;;;;;;;21.74;90.17;100558.56;5081263;28;20839;-73
2023/08/15 03:15:15;;;;;;;5.18;3.30;;;;;;;21.74;90.01;100565.84;5074816;28;20691;-73
2023/08/15 03:17:42;;;;;;;4.60;3.35;;;;;;;21.72;90.27;100565.16;5086162;28;20231;-73
2023/08/15 03:20:10;;;;;;;7.07;3.22;;;;;;;21.69;90.60;100562.78;5086171;28;20228;-73
2023/08/15 03:22:38;;;;;;;5.43;3.40;;;;;;;21.68;90.58;100558.38;5089653;28;20202;-75
2023/08/15 03:25:05;;;;;;;5.93;3.92;;;;;;;21.71;90.70;100552.63;5087452;28;20200;-75
2023/08/15 03:27:31;;;;;;;5.13;4.22;;;;;;;21.69;90.62;100557.38;5087785;28;20211;-75
2023/08/15 03:29:58;;;;;;;4.20;3.42;;;;;;;21.68;90.83;100555.69;5067679;22;20222;-85
2023/08/15 03:32:24;;;;;;;4.68;3.72;;;;;;;21.66;91.02;100552.31;5000746;28;20261;-85
2023/08/15 03:34:51;;;;;;;5.45;3.00;;;;;;;21.63;91.06;100556.22;4992714;28;20209;-85
2023/08/15 03:37:17;;;;;;;4.35;3.67;;;;;;;21.61;91.16;100560.09;4992723;28;20242;-85
2023/08/15 03:39:45;;;;;;;3.75;3.40;;;;;;;21.61;91.18;100554.69;4980865;28;20264;-85
2023/08/15 03:42:11;;;;;;;6.55;3.35;;;;;;;21.60;91.17;100544.84;4990948;28;20235;-84
2023/08/15 03:44:37;;;;;;;6.25;3.60;;;;;;;21.58;91.33;100555.88;4990749;28;20211;-85
2023/08/15 03:47:04;;;;;;;3.72;3.42;;;;;;;21.58;91.56;100555.88;4992199;28;20200;-85
2023/08/15 03:49:31;;;;;;;4.43;3.45;;;;;;;21.57;91.53;100558.75;4983875;28;20216;-85
2023/08/15 03:51:58;;;;;;;6.38;3.28;;;;;;;21.53;91.65;100551.97;4984082;28;20291;-85
2023/08/15 03:54:24;;;;;;;6.97;3.70;;;;;;;21.51;91.88;100545.88;5007236;28;20208;-84
2023/08/15 03:56:52;;;;;;;5.53;3.55;;;;;;;21.50;91.90;100545.03;4994933;28;20688;-85
2023/08/15 03:59:19;;;;;;;4.85;3.42;;;;;;;21.51;92.00;100529.59;4983607;28;20208;-84
2023/08/15 04:01:45;;;;;;;5.93;3.60;;;;;;;21.50;92.05;100527.94;5011581;28;20722;-84
2023/08/15 04:04:12;;;;;;;6.13;3.50;;;;;;;21.50;92.25;100530.66;4974739;28;20570;-85
2023/08/15 04:06:38;;;;;;;4.00;3.67;;;;;;;21.51;91.81;100521.47;4987683;28;20581;-85
2023/08/15 04:09:06;;;;;;;3.88;3.50;;;;;;;21.53;91.54;100519.44;4999501;28;20203;-85
2023/08/15 04:11:32;;;;;;;4.78;3.30;;;;;;;21.47;91.89;100519.13;4988405;28;20218;-85
2023/08/15 04:14:00;;;;;;;3.47;3.03;;;;;;;21.49;92.10;100513.56;4986392;28;20207;-84
2023/08/15 04:16:26;;;;;;;5.18;3.38;;;;;;;21.49;91.79;100513.56;4991387;28;20230;-84
2023/08/15 04:18:53;;;;;;;4.28;3.42;;;;;;;21.45;92.13;100529.28;4993405;28;20696;-86
2023/08/15 04:21:19;;;;;;;7.70;3.75;;;;;;;21.44;92.05;100538.44;4980270;28;20611;-86
2023/08/15 04:23:46;;;;;;;5.20;3.50;;;;;;;21.37;91.76;100539.28;4979541;28;20219;-85
2023/08/15 04:26:13;;;;;;;5.70;3.63;;;;;;;21.26;92.03;100540.47;4993690;28;20215;-85
2023/08/15 04:28:39;;;;;;;4.60;3.50;;;;;;;21.20;92.36;100548.41;4992527;28;20204;-84
2023/08/15 04:31:07;;;;;;;4.75;3.72;;;;;;;21.11;92.90;100542.13;4989914;28;20215;-85
2023/08/15 04:33:33;;;;;;;8.23;3.88;;;;;;;21.09;93.40;100553.13;4984412;28;20870;-85
2023/08/15 04:36:00;;;;;;;4.90;3.88;;;;;;;21.04;93.89;100568.16;4993575;28;20211;-85
2023/08/15 04:38:26;;;;;;;5.35;3.90;;;;;;;20.99;94.71;100575.94;4985969;28;20227;-85
2023/08/15 04:40:53;;;;;;;6.25;3.75;;;;;;;20.95;95.40;100590.84;4992218;28;20561;-85
2023/08/15 04:43:19;;;;;;;4.45;4.05;;;;;;;20.95;96.22;100601.66;4996466;28;20639;-85
2023/08/15 04:45:46;;;;;;;5.75;4.32;;;;;;;20.91;96.43;100600.28;4991928;28;20204;-84
2023/08/15 04:48:14;;;;;;;6.53;4.10;;;;;;;20.88;96.93;100606.03;4991250;28;20207;-85
2023/08/15 04:50:40;;;;;;;4.43;3.60;;;;;;;20.87;97.21;100618.72;5030422;28;20274;-86
2023/08/15 04:53:08;;;;;;;4.68;3.85;;;;;;;20.87;97.91;100607.88;4993945;28;20224;-85
2023/08/15 04:55:34;;;;;;;6.03;5.43;;;;;;;20.89;98.56;100613.13;4991086;28;20207;-85
2023/08/15 04:58:01;;;;;;;4.78;3.47;;;;;;;20.95;98.40;100604.38;4995535;28;20604;-85
2023/08/15 05:00:28;;;;;;;4.82;3.75;;;;;;;21.00;97.93;100596.56;4990056;28;20667;-86
2023/08/15 05:02:54;;;;;;;7.57;3.85;;;;;;;21.04;97.93;100598.78;5003978;28;20234;-86
2023/08/15 05:05:22;;;;;;;5.73;3.60;;;;;;;21.12;97.32;100587.16;4989756;28;20667;-87
2023/08/15 05:07:49;;;;;;;4.15;3.60;;;;;;;21.18;96.78;100600.00;4994547;28;20211;-84
2023/08/15 05:10:15;;;;;;;6.10;3.80;;;;;;;21.22;96.68;100600.56;4984590;28;20208;-86
2023/08/15 05:12:42;;;;;;;4.75;3.42;;;;;;;21.29;96.43;100607.00;4987063;28;20228;-86
2023/08/15 05:15:09;;;;;;;5.55;3.58;;;;;;;21.36;95.95;100608.88;4998714;28;20207;-84
2023/08/15 05:17:36;;;;;;;4.45;3.70;;;;;;;21.50;96.25;100607.34;5000048;28;20237;-85
2023/08/15 05:20:03;;;;;;;5.70;4.18;;;;;;;21.58;97.08;100593.81;4993197;28;20644;-85
2023/08/15 05:22:31;;;;;;;4.85;4.40;;;;;;;21.65;97.88;100597.53;4994605;28;20755;-84
2023/08/15 05:24:57;;;;;;;10.98;3.90;;;;;;;21.70;97.93;100602.44;4993613;28;20679;-84
2023/08/15 05:27:24;;;;;;;5.70;4.22;;;;;;;21.75;97.22;100598.19;4994468;28;20203;-85
2023/08/15 05:29:50;;;;;;;4.97;3.88;;;;;;;21.80;98.14;100598.56;4993393;28;20217;-85
2023/08/15 05:32:17;;;;;;;4.65;4.13;;;;;;;21.88;98.05;100616.66;4993407;28;20232;-84
2023/08/15 05:34:43;;;;;;;4.63;3.78;;;;;;;21.90;98.23;100616.50;4994012;28;20549;-85
2023/08/15 05:37:10;;;;;;;5.18;3.70;;;;;;;21.95;98.32;100628.53;4986934;28;20238;-84
2023/08/15 05:39:37;;;;;;;5.82;3.58;;;;;;;22.03;97.00;100641.28;5007855;28;20238;-85
2023/08/15 05:42:04;;;;;;;5.00;3.80;;;;;;;22.10;95.68;100640.41;5017423;28;20224;-85
2023/08/15 05:44:31;;;;;;;3.67;3.17;;;;;;;22.17;94.62;100641.41;4997309;28;20227;-85
2023/08/15 05:46:58;;;;;;;4.25;3.50;;;;;;;22.21;94.83;100644.63;4989416;28;20214;-85
2023/08/15 05:49:24;;;;;;;4.28;3.67;;;;;;;22.27;95.08;100634.94;4990326;28;20200;-85
2023/08/15 05:51:52;;;;;;;5.25;4.38;;;;;;;22.31;95.10;100641.72;4986411;28;20242;-84
2023/08/15 05:54:19;;;;;;;4.93;3.80;;;;;;;22.34;93.87;100646.81;4996563;28;20212;-85
2023/08/15 05:56:47;;;;;;;4.15;3.25;;;;;;;22.31;93.90;100645.28;4991877;28;20218;-85
2023/08/15 05:59:13;;;;;;;4.30;3.25;;;;;;;22.28;93.74;100650.19;4992574;28;20675;-84
2023/08/15 06:01:40;;;;;;;6.22;3.60;;;;;;;22.25;93.88;100656.81;4989095;28;20564;-84
2023/08/15 06:04:06;;;;;;;3.95;3.55;;;;;;;22.24;94.27;100663.25;4988183;28;20260;-85
2023/08/15 06:06:33;;;;;;;3.63;3.30;;;;;;;22.24;94.12;100660.53;5003622;28;20215;-84
2023/08/15 06:08:59;;;;;;;5.53;3.80;;;;;;;22.25;94.21;100653.25;4991275;28;20217;-85
2023/08/15 06:11:26;;;;;;;5.00;3.60;;;;;;;22.23;95.22;100658.00;4992007;28;20207;-84
2023/08/15 06:13:54;;;;;;;3.67;3.35;;;;;;;22.24;96.48;100641.56;4991946;28;20225;-84
2023/08/15 06:16:20;;;;;;;4.25;3.83;;;;;;;22.21;97.15;100633.78;4989556;28;20207;-86
2023/08/15 06:18:47;;;;;;;4.10;3.70;;;;;;;22.21;98.29;100649.22;4996339;28;20231;-85
2023/08/15 06:21:14;;;;;;;4.50;4.03;;;;;;;22.20;98.83;100659.22;4993460;28;20210;-84
2023/08/15 06:23:40;;;;;;;6.68;4.55;;;;;;;22.19;99.64;100649.38;4992161;28;20228;-84
2023/08/15 06:26:07;;;;;;;4.65;4.15;;;;;;;22.21;100.00;100663.63;4988638;28;20211;-85
2023/08/15 06:28:33;;;;;;;4.18;3.78;;;;;;;22.19;100.00;100673.81;4992826;28;20201;-84
2023/08/15 06:31:01;;;;;;;4.72;4.00;;;;;;;22.16;100.00;100709.41;4991287;28;20220;-84
2023/08/15 06:33:28;;;;;;;7.28;4.28;;;;;;;22.16;100.00;100715.69;4990907;28;20255;-84
2023/08/15 06:35:54;;;;;;;6.18;4.32;;;;;;;22.15;100.00;100724.81;4985678;28;20204;-83
2023/08/15 06:38:21;;;;;;;4.65;4.15;;;;;;;22.12;100.00;100744.16;4984298;28;20230;-83
2023/08/15 06:40:47;;;;;;;5.38;4.50;;;;;;;22.11;100.00;100749.75;4993729;28;20628;-84
2023/08/15 06:43:14;;;;;;;6.05;4.35;;;;;;;22.11;100.00;100768.72;4993927;28;20768;-82
2023/08/15 06:45:40;;;;;;;7.65;4.40;;;;;;;22.06;100.00;100801.78;4996491;28;20207;-82
2023/08/15 06:48:08;;;;;;;5.65;4.65;;;;;;;21.99;100.00;100803.44;4988580;28;20208;-81
2023/08/15 06:50:35;;;;;;;6.07;4.97;;;;;;;21.94;100.00;100821.22;4977053;28;20218;-81
2023/08/15 06:53:01;;;;;;;7.35;4.50;;;;;;;21.90;100.00;100826.13;4983135;28;20234;-81
2023/08/15 06:55:28;;;;;;;6.45;5.15;;;;;;;21.77;100.00;100825.75;4979360;28;20204;-81
2023/08/15 06:57:54;;;;;;;5.20;4.63;;;;;;;21.73;100.00;100811.69;4980589;28;21004;-80
2023/08/15 07:00:21;;;;;;;6.75;4.53;;;;;;;21.64;100.00;100780.16;4981363;28;20636;-80
2023/08/15 07:02:47;;;;;;;7.03;4.20;;;;;;;21.59;100.00;100751.84;4977933;28;20897;-80
2023/08/15 07:05:15;;;;;;;5.82;3.83;;;;;;;21.51;100.00;100743.69;4983207;28;20674;-80
2023/08/15 07:07:42;;;;;;;4.18;3.40;;;;;;;21.44;100.00;100700.16;4999038;28;20220;-81
2023/08/15 07:10:10;;;;;;;3.83;2.92;;;;;;;21.34;100.00;100677.78;4976442;28;20204;-82
2023/08/15 07:12:36;;;;;;;5.53;3.65;;;;;;;21.28;100.00;100662.19;4984666;28;20268;-82
2023/08/15 07:15:03;;;;;;;4.45;3.47;;;;;;;21.23;100.00;100665.41;4983151;28;20213;-83
2023/08/15 07:17:30;;;;;;;3.05;2.55;;;;;;;21.27;100.00;100674.91;4974280;28;20263;-83
2023/08/15 07:19:56;;;;;;;2.47;2.22;;;;;;;21.26;100.00;100647.97;4986005;28;20211;-83
2023/08/15 07:22:24;;;;;;;2.10;2.00;;;;;;;21.23;100.00;100637.47;4995871;28;20228;-82
2023/08/15 07:24:51;;;;;;;4.68;2.25;;;;;;;21.19;100.00;100636.91;4978813;28;20579;-84
2023/08/15 07:27:17;;;;;;;2.95;2.55;;;;;;;21.23;100.00;100653.72;4982862;28;20208;-83
2023/08/15 07:29:44;;;;;;;3.55;2.30;;;;;;;21.25;100.00;100640.84;4984922;28;20283;-83
2023/08/15 07:32:11;;;;;;;3.33;3.00;;;;;;;21.25;100.00;100655.25;4986076;28;20223;-82
2023/08/15 07:34:37;;;;;;;3.78;2.42;;;;;;;21.26;100.00;100654.22;4978583;28;20215;-84
2023/08/15 07:37:04;;;;;;;1.90;1.80;;;;;;;21.34;100.00;100647.97;4986337;28;20876;-84
2023/08/15 07:39:32;;;;;;;2.80;2.30;;;;;;;21.39;100.00;100654.59;4985940;28;20210;-84
2023/08/15 07:41:58;;;;;;;4.07;1.88;;;;;;;21.42;100.00;100666.97;4980331;28;20699;-83
2023/08/15 07:44:25;;;;;;;2.17;1.98;;;;;;;21.43;100.00;100693.88;4990761;28;20207;-84
2023/08/15 07:46:52;;;;;;;2.20;2.00;;;;;;;21.50;100.00;100720.34;4991448;28;20199;-85
2023/08/15 07:49:19;;;;;;;3.10;2.80;;;;;;;21.61;100.00;100733.56;5000120;28;20203;-85
2023/08/15 07:51:45;;;;;;;4.25;2.58;;;;;;;21.69;100.00;100749.81;4991661;28;20227;-84
2023/08/15 07:54:12;;;;;;;4.22;2.85;;;;;;;21.79;100.00;100743.25;4990502;28;20207;-83
2023/08/15 07:56:39;;;;;;;3.05;2.53;;;;;;;21.88;100.00;100730.53;4990399;28;20203;-82
2023/08/15 07:59:06;;;;;;;3.65;2.10;;;;;;;21.94;100.00;100729.03;4989960;28;20231;-83
2023/08/15 08:01:32;;;;;;;1.58;1.42;;;;;;;21.98;100.00;100698.69;4995830;28;20278;-82
2023/08/15 08:04:00;;;;;;;1.20;1.10;;;;;;;22.08;100.00;100725.66;4976818;28;20199;-83
2023/08/15 08:06:27;;;;;;;1.30;1.20;;;;;;;22.15;100.00;100729.41;4987779;28;20211;-83
2023/08/15 08:08:53;;;;;;;1.33;1.23;;;;;;;22.25;100.00;100721.06;5001201;28;20252;-81
2023/08/15 08:11:20;;;;;;;2.25;1.20;;;;;;;22.36;100.00;100731.59;4987053;28;20203;-81
2023/08/15 08:13:47;;;;;;;1.48;1.25;;;;;;;22.53;100.00;100722.41;4989049;28;20609;-81
2023/08/15 08:16:14;;;;;;;1.55;1.30;;;;;;;22.65;100.00;100721.00;4982332;28;20597;-81
2023/08/15 08:18:40;;;;;;;1.38;1.08;;;;;;;22.77;100.00;100730.50;4993276;28;20696;-82
2023/08/15 08:21:09;;;;;;;1.40;0.90;;;;;;;22.90;100.00;100740.00;4990766;28;20458;-83
2023/08/15 08:23:36;;;;;;;1.42;1.10;;;;;;;22.97;100.00;100751.84;4986949;28;20711;-82
2023/08/15 08:26:03;;;;;;;1.20;1.10;;;;;;;23.10;99.51;100746.72;4986431;28;20280;-83
2023/08/15 08:28:30;;;;;;;1.23;1.13;;;;;;;23.27;99.10;100750.22;4990125;28;20201;-82
2023/08/15 08:30:58;;;;;;;1.92;1.20;;;;;;;23.41;96.69;100753.03;4988187;28;20672;-83
2023/08/15 08:33:25;;;;;;;1.40;0.98;;;;;;;23.53;95.18;100746.19;4989358;28;20228;-83
2023/08/15 08:35:51;;;;;;;1.05;0.90;;;;;;;23.59;93.58;100749.22;4989236;28;20208;-83
2023/08/15 08:38:18;;;;;;;1.40;1.30;;;;;;;23.64;93.10;100746.81;4984913;28;20231;-82
2023/08/15 08:40:44;;;;;;;1.33;1.10;;;;;;;23.77;90.96;100741.63;4988324;28;20226;-83
2023/08/15 08:43:12;;;;;;;2.15;1.40;;;;;;;23.81;89.13;100743.81;4991709;28;20227;-82
2023/08/15 08:45:41;;;;;;;2.10;1.20;;;;;;;23.88;87.81;100733.03;4993558;28;20435;-82
2023/08/15 08:48:10;;;;;;;4.90;1.27;;;;;;;23.87;87.07;100743.06;4986697;28;20581;-82
2023/08/15 08:50:38;;;;;;;5.43;2.03;;;;;;;23.99;89.07;100745.38;4988080;28;20215;-82
2023/08/15 08:53:04;;;;;;;7.15;2.65;;;;;;;24.11;89.28;100738.47;4989905;28;20230;-82
2023/08/15 08:55:33;;;;;;;3.50;1.80;;;;;;;24.22;87.08;100749.75;5004123;28;20207;-83
2023/08/15 08:58:03;;;;;;;2.88;1.60;;;;;;;24.34;83.79;100741.22;4991340;28;20231;-83
2023/08/15 09:00:33;;;;;;;3.17;1.42;;;;;;;24.40;84.60;100749.47;4987830;28;20415;-83
2023/08/15 09:03:00;;;;;;;2.00;1.45;;;;;;;24.53;83.39;100752.44;4990779;28;20254;-82
2023/08/15 09:05:28;;;;;;;2.03;1.10;;;;;;;24.62;82.58;100752.31;4978948;28;20307;-83
2023/08/15 09:07:55;;;;;;;1.35;1.20;;;;;;;24.67;82.44;100756.19;4983227;28;20208;-83
2023/08/15 09:10:22;;;;;;;1.60;1.50;;;;;;;24.80;82.60;100756.38;4984656;28;20282;-83
2023/08/15 09:12:49;;;;;;;2.90;1.42;;;;;;;24.88;80.80;100742.69;4986873;28;20231;-83
2023/08/15 09:15:16;;;;;;;3.67;1.80;;;;;;;25.00;79.78;100753.13;4985646;28;20208;-83
2023/08/15 09:17:44;;;;;;;3.75;1.73;;;;;;;25.11;79.97;100750.78;4990620;28;20216;-83
2023/08/15 09:20:12;;;;;;;1.55;1.33;;;;;;;25.25;78.89;100758.13;4986078;28;20207;-83
2023/08/15 09:22:45;;;;;;;1.75;1.00;;;;;;;25.36;76.70;100756.78;4981272;28;20606;-84
2023/08/15 09:25:13;;;;;;;1.10;1.00;;;;;;;25.48;74.76;100754.38;4977982;28;20203;-82
2023/08/15 09:27:41;;;;;;;1.33;1.00;;;;;;;25.57;72.28;100747.78;4991750;28;20207;-83
2023/08/15 09:30:09;;;;;;;0.80;0.80;;;;;;;25.57;69.27;100754.09;4996474;28;20898;-84
2023/08/15 09:32:35;;;;;;;2.15;0.77;;;;;;;25.68;70.79;100751.91;4994152;28;20235;-83
2023/08/15 09:35:03;;;;;;;3.60;0.93;;;;;;;25.80;68.24;100742.19;4985044;28;20204;-82
2023/08/15 09:37:29;;;;;;;1.08;0.80;;;;;;;25.90;67.80;100740.00;4991341;28;20689;-82
2023/08/15 09:39:57;;;;;;;0.68;0.68;;;;;;;26.01;67.42;100747.66;4992081;28;20246;-83
2023/08/15 09:42:24;;;;;;;0.90;0.90;;;;;;;26.09;66.91;100749.41;4984710;28;20297;-82
2023/08/15 09:44:51;;;;;;;1.67;1.00;;;;;;;26.17;66.71;100743.81;4988066;28;20238;-82
2023/08/15 09:47:19;;;;;;;0.88;0.80;;;;;;;26.32;67.27;100749.25;4999339;28;20621;-82
2023/08/15 09:49:45;;;;;;;1.35;1.00;;;;;;;26.40;65.55;100739.00;4994048;28;20786;-83
2023/08/15 09:52:14;;;;;;;1.73;1.10;;;;;;;26.55;66.17;100736.16;4991225;28;20235;-84
2023/08/15 09:54:42;;;;;;;2.22;1.30;;;;;;;26.66;64.70;100737.53;4987696;28;20223;-83
2023/08/15 09:57:10;;;;;;;1.27;1.15;;;;;;;26.71;63.86;100740.47;4991727;28;20218;-83
2023/08/15 09:59:37;;;;;;;2.38;1.23;;;;;;;26.77;64.36;100745.16;4985281;28;20234;-83
2023/08/15 10:02:08;;;;;;;1.67;1.00;;;;;;;26.86;63.95;100741.22;4992489;28;20228;-83
2023/08/15 10:04:35;;;;;;;1.75;1.30;;;;;;;26.94;63.71;100749.28;4985255;28;20211;-83
2023/08/15 10:07:02;;;;;;;1.52;1.20;;;;;;;27.09;63.89;100747.25;4988821;28;20230;-83
2023/08/15 10:09:33;;;;;;;1.83;1.20;;;;;;;27.16;62.65;100750.88;4986297;28;20212;-83
2023/08/15 10:12:00;;;;;;;1.08;0.98;;;;;;;27.18;62.44;100761.63;5017548;28;20227;-82
2023/08/15 10:14:29;;;;;;;1.90;1.15;;;;;;;27.24;62.13;100756.16;4985610;28;20212;-82
2023/08/15 10:16:56;;;;;;;1.80;1.40;;;;;;;27.26;62.23;100761.44;4983427;28;20214;-82
2023/08/15 10:19:30;;;;;;;1.38;1.20;;;;;;;27.33;62.61;100765.06;4989662;28;20227;-83
2023/08/15 10:21:56;;;;;;;1.70;1.40;;;;;;;27.37;61.09;100777.28;4991153;28;20224;-82
2023/08/15 10:24:23;;;;;;;1.52;1.30;;;;;;;27.43;62.11;100773.72;4988839;28;20208;-83
2023/08/15 10:26:52;;;;;;;1.70;1.55;;;;;;;27.54;62.07;100773.16;5005899;28;20643;-83
2023/08/15 10:29:19;;;;;;;1.75;1.33;;;;;;;27.64;61.14;100775.50;4982809;28;20250;-83
2023/08/15 10:31:47;;;;;;;1.83;1.40;;;;;;;27.75;61.24;100771.34;4983645;28;20207;-84
2023/08/15 10:34:14;;;;;;;1.75;1.30;;;;;;;27.86;61.00;100777.06;4980072;28;20212;-83
2023/08/15 10:36:41;;;;;;;2.08;1.42;;;;;;;27.92;59.75;100775.41;4992444;28;20574;-83
2023/08/15 10:39:08;;;;;;;3.25;1.48;;;;;;;27.93;59.75;100780.66;4990690;28;20609;-83
2023/08/15 10:41:35;;;;;;;2.10;1.85;;;;;;;28.00;60.52;100778.78;4983695;28;20203;-83
2023/08/15 10:44:06;;;;;;;2.97;1.80;;;;;;;28.11;59.70;100781.97;4984892;28;20208;-84
2023/08/15 10:46:34;;;;;;;3.88;1.70;;;;;;;28.19;59.13;100784.50;4987367;28;20203;-84
2023/08/15 10:49:08;;;;;;;2.63;2.15;;;;;;;28.25;58.54;100783.69;4986647;28;20253;-83
2023/08/15 10:51:36;;;;;;;2.53;2.00;;;;;;;28.32;58.06;100776.31;4990426;28;20283;-84
2023/08/15 10:54:04;;;;;;;3.15;2.25;;;;;;;28.43;57.90;100780.34;5000358;28;20208;-84
2023/08/15 10:56:32;;;;;;;2.47;2.20;;;;;;;28.48;57.38;100788.78;4988590;28;20203;-83
2023/08/15 10:59:05;;;;;;;3.20;2.03;;;;;;;28.54;57.50;100791.50;4999395;28;20231;-85
2023/08/15 11:01:32;;;;;;;2.40;2.00;;;;;;;28.59;57.35;100783.50;4988278;28;20204;-84
2023/08/15 11:03:59;;;;;;;1.80;1.50;;;;;;;28.62;56.50;100783.06;5002296;28;20212;-82
2023/08/15 11:06:28;;;;;;;4.32;3.20;;;;;;;28.68;56.89;100790.44;4984430;28;20211;-84
2023/08/15 11:08:57;;;;;;;4.45;2.92;;;;;;;28.78;57.18;100800.13;4992366;28;20206;-84
2023/08/15 11:11:24;;;;;;;2.90;2.05;;;;;;;28.86;54.71;100800.78;4998617;28;20212;-80
2023/08/15 11:13:51;;;;;;;2.35;2.15;;;;;;;28.85;54.20;100795.50;5005902;28;20230;-82
2023/08/15 11:16:20;;;;;;;2.83;2.10;;;;;;;28.91;54.49;100798.25;4982278;28;20206;-82
2023/08/15 11:18:50;;;;;;;2.03;1.80;;;;;;;28.93;55.14;100795.28;4984023;28;20240;-82
2023/08/15 11:21:18;;;;;;;2.10;1.90;;;;;;;28.95;53.46;100799.50;4989474;28;20196;-82
2023/08/15 11:23:46;;;;;;;2.65;1.85;;;;;;;28.92;53.60;100799.94;4986621;28;20228;-83